Latest Weather Observations for Badgerys Creek

IDN60801

Issued at 1:13 pm EDT Monday 30 November 2020 (issued every 10 minutes, with the page automatically refreshed every 10 minutes)

About weather observations | Map of weather stations | Latest weather observations for NSW | Other Formats
Station Details ID: 067108 Name: BADGERYS CREEK AWS Lat: -33.90 Lon: 150.73 Height: 81.2 m
Data from the previous 72 hours. | See also: Recent months at Badgerys Creek
Date/Time
EDT
Temp
°C
App
Temp
°C
Dew
Point
°C
Rel
Hum
%
Delta-T
°C
Wind Press
QNH
hPa
Press
MSL
hPa
Rain since
9am
mm
Dir  Spd
km/h
Gust
km/h
Spd
kts
Gust
kts
30/01:00pm 30.2 31.1 17.6 46 8.0 E 9 19 5 10 1017.0 1016.8 0.0
30/12:30pm 27.6 28.2 15.9 49 7.2 ENE 7 17 4 9 1017.5 1017.2 0.0
30/12:00pm 27.9 28.5 16.8 50 6.9 ENE 9 19 5 10 1017.7 1017.4 0.0
30/11:58am 27.8 28.7 17.6 53 6.5 ENE 9 19 5 10 1017.7 1017.4 0.0
30/11:51am 22.7 21.1 11.7 49 6.2 E 11 17 6 9 1017.7 1017.4 0.0
30/11:30am 28.6 29.5 18.4 54 6.5 ENE 11 15 6 8 1017.8 1017.5 0.0
30/11:00am 28.6 30.5 19.0 56 6.2 ENE 7 13 4 7 1018.2 1017.9 0.0
30/10:54am 26.3 27.2 16.5 54 6.1 ESE 7 13 4 7 1018.3 1018.0 0.0
30/10:30am 20.6 20.1 12.6 60 4.5 SE 7 11 4 6 1018.5 1018.2 0.0
30/10:18am 20.7 20.2 12.7 60 4.5 E 7 11 4 6 1018.6 1018.3 0.0
30/10:00am 25.9 27.4 18.1 62 4.9 SE 7 13 4 7 1018.6 1018.3 0.0
30/09:30am 25.1 26.7 17.8 64 4.6 ESE 6 11 3 6 1018.7 1018.4 0.0
30/09:00am 22.2 22.6 15.3 65 4.1 SSE 7 13 4 7 1018.5 1018.2 0.0
30/08:30am 21.2 20.9 14.4 65 4.0 SE 9 17 5 9 1018.5 1018.2 0.0
30/08:00am 21.5 21.8 15.1 67 3.8 ESE 7 11 4 6 1018.2 1017.9 0.0
30/07:30am 20.5 22.8 16.7 79 2.3 CALM 0 0 0 0 1018.0 1017.7 0.0
30/07:00am 20.3 23.1 17.9 86 1.5 CALM 0 0 0 0 1017.6 1017.3 0.0
30/06:30am 20.4 22.5 18.0 86 1.5 S 4 6 2 3 1017.2 1017.0 0.0
30/06:00am 20.8 23.9 18.7 88 1.3 CALM 0 0 0 0 1017.0 1016.8 0.0
30/05:30am 20.2 22.4 18.3 89 1.2 S 4 6 2 3 1016.7 1016.5 0.0
30/05:00am 19.2 20.5 17.0 87 1.3 S 6 7 3 4 1016.2 1016.0 0.0
30/04:30am 18.6 19.2 15.7 83 1.7 S 7 9 4 5 1016.0 1015.8 0.0
30/04:00am 19.6 20.1 15.5 77 2.4 SSE 7 15 4 8 1015.9 1015.7 0.0
30/03:30am 19.8 19.9 16.6 82 1.9 SE 11 20 6 11 1016.1 1015.9 0.0
30/03:00am 21.1 22.4 17.5 80 2.2 SSE 7 11 4 6 1015.8 1015.6 0.0
30/02:30am 20.6 22.2 18.2 86 1.5 S 7 9 4 5 1015.9 1015.7 0.0
30/02:00am 19.4 20.1 16.2 82 1.9 SSE 7 13 4 7 1015.9 1015.7 0.0
30/01:30am 21.8 22.7 17.6 77 2.6 SSE 9 17 5 9 1015.9 1015.7 0.0
30/01:00am 22.6 23.0 16.4 68 3.8 SE 9 15 5 8 1015.7 1015.5 0.0
30/12:30am 23.9 24.3 17.2 66 4.2 ESE 11 17 6 9 1015.5 1015.3 0.0
30/12:24am 24.1 24.6 17.4 66 4.2 ESE 11 19 6 10 1015.4 1015.2 0.0
30/12:21am 19.1 17.8 12.6 66 3.7 ESE 11 19 6 10 1015.4 1015.2 0.0
30/12:00am 25.3 25.9 18.5 66 4.3 SE 13 19 7 10 1015.2 1015.0 0.0
 
Date/Time
EDT
Temp
°C
App
Temp
°C
Dew
Point
°C
Rel
Hum
%
Delta-T
°C
Wind Press
QNH
hPa
Press
MSL
hPa
Rain since
9am
mm
Dir  Spd
km/h
Gust
km/h
Spd
kts
Gust
kts
29/11:59pm 25.0 25.4 18.2 66 4.3 SE 13 19 7 10 1015.1 1014.9 0.0
29/11:56pm 19.2 17.5 12.5 65 3.8 SE 13 20 7 11 1015.1 1014.9 0.0
29/11:30pm 24.4 24.2 17.6 66 4.3 ESE 15 26 8 14 1014.8 1014.6 0.0
29/11:00pm 25.0 26.5 18.0 65 4.4 SE 7 13 4 7 1014.5 1014.3 0.0
29/10:30pm 23.2 21.9 15.8 63 4.5 SE 17 26 9 14 1014.0 1013.8 0.0
29/10:19pm 20.1 17.7 12.8 63 4.1 ESE 17 28 9 15 1013.8 1013.6 0.0
29/10:05pm 26.5 27.7 19.1 64 4.8 ESE 11 17 6 9 1013.5 1013.3 0.0
29/10:00pm 19.5 18.3 12.8 65 3.8 ESE 11 17 6 9 1013.4 1013.2 0.0
29/09:30pm 24.3 24.4 17.5 66 4.2 ESE 13 20 7 11 1012.3 1012.1 0.0
29/09:00pm 24.7 25.8 17.9 66 4.3 ESE 9 13 5 7 1011.4 1011.1 0.0
29/08:30pm 24.8 25.3 17.5 64 4.6 ESE 11 17 6 9 1010.1 1009.8 0.0
29/08:00pm 24.1 22.8 16.9 64 4.5 ESE 19 28 10 15 1009.1 1008.8 0.0
29/07:30pm 23.5 22.0 16.3 64 4.4 ESE 19 30 10 16 1007.6 1007.3 0.0
29/07:00pm 24.4 21.2 16.4 61 4.9 ESE 28 43 15 23 1006.0 1005.7 0.0
29/06:30pm 27.5 23.7 14.8 45 7.7 E 28 43 15 23 1004.1 1003.9 0.0
29/06:15pm 30.6 28.2 13.8 35 10.1 SE 19 39 10 21 1003.6 1003.4 0.0
29/06:00pm 32.1 32.3 14.3 34 10.9 NW 6 7 3 4 1002.6 1002.4 0.0
29/05:30pm 33.2 32.1 14.3 32 11.6 W 13 28 7 15 1001.5 1001.3 0.0
29/05:00pm 33.9 30.4 13.4 29 12.5 W 24 39 13 21 1000.8 1000.5 0.0
29/04:30pm 35.2 28.7 13.9 27 13.1 WNW 41 59 22 32 1000.0 999.7 0.0
29/04:02pm 36.1 32.3 14.7 28 13.4 WNW 28 46 15 25 999.1 998.8 0.0
29/04:00pm 35.7 31.6 13.8 27 13.5 WNW 28 44 15 24 998.9 998.6 0.0
29/03:30pm 34.8 27.4 13.0 26 13.2 WNW 44 69 24 37 998.5 998.2 0.0
29/03:00pm 35.5 26.4 13.6 26 13.5 WNW 54 76 29 41 998.5 998.2 0.0
29/02:50pm 36.3 28.9 13.1 25 14.2 W 44 80 24 43 999.9 999.6 0.0
29/02:30pm 37.3 30.8 14.0 25 14.5 WNW 41 61 22 33 999.5 999.2 0.0
29/02:00pm 37.5 32.0 13.5 24 14.9 WNW 35 54 19 29 999.2 998.9 0.0
29/01:30pm 38.0 30.3 13.3 23 15.2 WNW 46 72 25 39 999.0 998.7 0.0
29/01:00pm 38.8 31.7 13.9 22 15.6 WNW 44 70 24 38 999.1 998.8 0.0
29/12:30pm 38.3 30.4 12.8 22 15.6 NW 46 69 25 37 998.9 998.6 0.0
29/12:08pm 38.2 31.1 13.4 23 15.3 NW 43 61 23 33 999.0 998.7 0.0
29/12:00pm 38.3 31.9 14.2 24 15.1 NW 41 56 22 30 999.2 998.9 0.0
29/11:30am 37.4 30.1 12.8 23 15.0 WNW 43 65 23 35 999.5 999.2 0.0
29/11:00am 37.8 30.8 12.4 22 15.5 NW 41 61 22 33 999.6 999.3 0.0
29/10:55am 37.5 30.6 11.5 21 15.6 NNW 39 61 21 33 999.5 999.2 0.0
29/10:54am 37.6 30.9 12.3 22 15.3 NNW 39 52 21 28 999.6 999.3 0.0
29/10:30am 36.9 33.3 13.0 24 14.6 N 24 32 13 17 1000.1 999.8 0.0
29/10:00am 35.2 30.4 11.6 24 14.1 N 28 37 15 20 1000.4 1000.1 0.0
29/09:30am 34.9 29.8 12.0 25 13.7 N 30 41 16 22 1000.7 1000.4 0.0
29/09:00am 33.5 28.2 13.0 29 12.4 NNW 33 46 18 25 1001.0 1000.8 0.0
29/08:41am 32.5 28.0 13.7 32 11.4 NNW 30 48 16 26 1001.0 1000.8 0.0
29/08:30am 31.7 28.2 13.5 33 11.0 NNW 24 33 13 18 1001.0 1000.8 0.0
29/08:00am 31.1 28.0 13.4 34 10.7 NW 22 35 12 19 1001.1 1000.9 0.0
29/07:30am 30.4 27.5 12.8 34 10.5 NNW 20 32 11 17 1000.9 1000.7 0.0
29/07:00am 30.8 26.2 12.2 32 11.0 NW 28 37 15 20 1000.8 1000.5 0.0
29/06:30am 30.6 27.8 12.5 33 10.7 NNW 19 37 10 20 1000.7 1000.4 0.0
29/06:00am 27.8 26.5 13.7 42 8.4 NNE 13 19 7 10 1000.9 1000.7 0.0
29/05:30am 29.4 27.3 13.6 38 9.5 N 17 35 9 19 1000.9 1000.7 0.0
29/05:00am 30.0 27.0 13.7 37 9.8 NNE 22 30 12 16 1000.6 1000.3 0.0
29/04:30am 29.5 27.3 14.9 41 8.9 N 20 28 11 15 1000.9 1000.7 0.0
29/04:00am 35.8 35.6 20.5 41 10.4 N 22 35 12 19 1000.9 1000.7 0.0
29/03:41am 36.3 39.2 23.9 49 8.7 NNE 15 20 8 11 1001.6 1001.4 0.0
29/03:30am 29.0 30.1 18.1 51 7.0 NE 9 13 5 7 1002.6 1002.4 0.0
29/03:00am 30.0 31.4 17.8 48 7.8 N 7 13 4 7 1003.3 1003.1 0.0
29/02:30am 29.4 27.3 16.2 44 8.2 N 22 33 12 18 1003.8 1003.6 0.0
29/02:00am 30.3 27.5 18.1 48 7.9 N 30 39 16 21 1004.2 1004.0 0.0
29/01:55am 29.9 27.4 18.0 48 7.6 N 28 39 15 21 1004.6 1004.4 0.0
29/01:30am 28.6 28.5 17.8 52 6.9 N 15 20 8 11 1006.7 1006.4 0.0
29/01:00am 29.6 30.6 15.3 41 8.8 SSW 4 7 2 4 1006.8 1006.5 0.0
29/12:58am 29.8 30.5 15.5 42 8.8 SSW 6 11 3 6 1006.8 1006.5 0.0
29/12:40am 36.3 37.2 20.1 38 10.9 SW 15 24 8 13 1006.9 1006.6 0.0
29/12:30am 30.9 28.2 14.5 37 10.0 SW 22 32 12 17 1006.9 1006.6 0.0
29/12:23am 31.6 29.5 15.1 36 10.2 SSW 20 28 11 15 1006.9 1006.6 0.0
29/12:07am 37.6 36.3 19.0 33 12.4 SW 24 35 13 19 1007.2 1006.9 0.0
29/12:00am 32.0 29.2 13.2 31 11.3 SW 20 32 11 17 1007.1 1006.8 0.0
 
Date/Time
EDT
Temp
°C
App
Temp
°C
Dew
Point
°C
Rel
Hum
%
Delta-T
°C
Wind Press
QNH
hPa
Press
MSL
hPa
Rain since
9am
mm
Dir  Spd
km/h
Gust
km/h
Spd
kts
Gust
kts
28/11:30pm 28.8 28.6 15.7 45 8.1 SW 11 19 6 10 1006.3 1006.0 0.0
28/11:21pm 30.0 30.5 17.5 47 8.0 WSW 11 15 6 8 1006.2 1005.9 0.0
28/11:00pm 35.3 36.0 18.8 37 10.9 W 13 20 7 11 1005.5 1005.2 0.0
28/10:46pm 36.1 40.8 25.0 52 7.9 WNW 9 13 5 7 1005.1 1004.8 0.0
28/10:30pm 27.6 29.2 16.9 52 6.7 NE 4 9 2 5 1004.6 1004.4 0.0
28/10:00pm 30.5 31.2 14.6 38 9.7 NE 4 4 2 2 1005.0 1004.7 0.0
28/09:44pm 30.9 31.2 14.5 37 10.0 NE 6 9 3 5 1004.9 1004.6 0.0
28/09:38pm 37.8 42.4 23.8 44 9.9 NNE 6 9 3 5 1004.9 1004.6 0.0
28/09:30pm 31.2 31.9 14.4 36 10.3 N 4 6 2 3 1004.8 1004.5 0.0
28/09:22pm 33.3 34.6 16.2 36 10.8 N 4 4 2 2 1004.8 1004.5 0.0
28/09:00pm 38.7 40.9 19.5 32 12.9 N 7 9 4 5 1004.6 1004.4 0.0
28/08:30pm 38.1 39.8 18.5 31 13.0 N 7 9 4 5 1004.4 1004.2 0.0
28/08:00pm 40.9 42.7 18.8 27 14.8 NNW 7 9 4 5 1004.5 1004.3 0.0
28/07:30pm 40.6 42.4 19.6 29 14.2 N 9 11 5 6 1004.4 1004.2 0.0
28/07:00pm 34.7 34.3 14.0 28 12.8 NNW 9 13 5 7 1004.1 1003.9 0.0
28/06:30pm 35.8 35.0 13.9 27 13.5 N 11 15 6 8 1004.0 1003.8 0.0
28/06:00pm 36.7 36.1 14.6 26 13.8 N 11 15 6 8 1003.8 1003.6 0.0
28/05:30pm 37.4 34.3 13.4 24 14.8 NNW 22 32 12 17 1003.9 1003.7 0.0
28/05:00pm 39.0 36.5 14.1 23 15.6 NNW 20 28 11 15 1004.2 1004.0 0.0
28/04:30pm 39.3 37.1 14.3 22 15.7 NNW 19 24 10 13 1004.6 1004.4 0.0
28/04:00pm 38.0 34.3 13.9 24 15.0 NNW 26 37 14 20 1005.2 1004.9 0.0
28/03:30pm 39.4 35.3 13.7 21 16.0 WNW 28 37 15 20 1005.4 1005.1 0.0
28/03:00pm 38.9 33.4 11.9 20 16.4 NW 32 44 17 24 1005.9 1005.6 0.0
28/02:30pm 39.3 35.9 13.7 22 15.9 NW 24 32 13 17 1006.1 1005.8 0.0
28/02:00pm 39.3 34.7 12.2 20 16.6 NW 28 37 15 20 1006.2 1005.9 0.0
28/01:30pm 40.0 37.8 14.9 22 15.9 NW 20 32 11 17 1006.7 1006.4 0.0
28/01:00pm 39.4 37.1 15.7 24 15.2 NW 22 32 12 17 1007.2 1006.9 0.0
28/12:45pm 39.5 37.9 16.4 25 14.9 NW 20 35 11 19 1007.4 1007.1 0.0
28/12:30pm 46.2 45.7 21.4 24 17.3 NW 26 39 14 21 1007.5 1007.2 0.0
28/12:26pm 47.0 47.2 22.1 24 17.5 NNW 24 39 13 21 1007.6 1007.3 0.0
28/12:00pm 38.6 35.9 15.7 26 14.6 NW 24 32 13 17 1007.8 1007.5 0.0
28/11:30am 36.5 38.7 20.3 38 10.9 NNW 9 15 5 8 1008.1 1007.8 0.0
28/11:00am 34.0 36.3 21.4 47 8.6 NNE 11 17 6 9 1008.5 1008.2 0.0
28/10:30am 31.0 33.8 20.9 55 6.8 NE 7 11 4 6 1009.0 1008.7 0.0
28/10:00am 29.2 32.7 20.4 59 5.8 NNE 2 9 1 5 1009.5 1009.2 0.0
28/09:30am 27.5 30.1 20.1 64 4.9 N 6 7 3 4 1009.7 1009.4 0.0
28/09:00am 26.2 28.6 20.1 69 4.0 N 7 11 4 6 1010.0 1009.7 0.0
28/08:30am 24.7 27.7 20.0 75 3.1 NE 4 7 2 4 1010.3 1010.0 0.0
28/08:00am 22.6 26.2 19.8 84 1.8 CALM 0 4 0 2 1010.3 1010.0 0.0
28/07:30am 21.3 25.1 20.1 93 0.8 CALM 0 0 0 0 1010.4 1010.1 0.0
28/07:00am 19.6 23.0 19.4 99 0.1 CALM 0 0 0 0 1010.3 1010.0 0.0
28/06:30am 23.3 28.7 23.3 100 0.0 CALM 0 0 0 0 1010.1 1009.8 0.0
28/06:00am 20.3 24.1 20.1 99 0.1 CALM 0 0 0 0 1010.1 1009.8 0.0
28/05:47am 18.8 22.0 18.8 100 0.0 CALM 0 0 0 0 1010.0 1009.7 0.0
28/05:33am 24.5 30.6 24.5 100 0.0 CALM 0 0 0 0 1010.0 1009.7 0.0
28/05:30am 19.2 22.5 19.2 100 0.0 CALM 0 0 0 0 1010.0 1009.7 0.0
28/05:00am 18.1 20.9 17.9 99 0.1 CALM 0 0 0 0 1009.9 1009.6 0.0
28/04:30am 18.2 20.6 18.0 99 0.1 ESE 2 4 1 2 1010.0 1009.7 0.0
28/04:00am 18.6 20.8 18.4 99 0.1 ESE 4 4 2 2 1009.9 1009.6 0.0
28/03:30am 18.6 20.4 18.4 99 0.1 ESE 6 6 3 3 1010.3 1010.0 0.0
28/03:00am 19.0 21.4 18.8 99 0.1 ESE 4 6 2 3 1010.4 1010.1 0.0
28/02:30am 18.8 20.6 18.3 97 0.3 ESE 6 6 3 3 1011.0 1010.7 0.0
28/02:00am 19.1 21.0 18.6 97 0.3 ESE 6 6 3 3 1011.3 1011.0 0.0
28/01:50am 19.9 22.1 19.2 96 0.4 ESE 6 6 3 3 1011.5 1011.3 0.0
28/01:42am 26.8 32.7 25.9 95 0.6 ESE 6 6 3 3 1011.5 1011.3 0.0
28/01:30am 19.4 21.7 18.6 95 0.5 ESE 4 4 2 2 1011.7 1011.5 0.0
28/01:00am 19.5 21.7 18.3 93 0.7 ESE 4 6 2 3 1012.1 1011.9 0.0
28/12:30am 20.0 22.3 18.5 91 0.9 ESE 4 6 2 3 1012.4 1012.2 0.0
28/12:00am 20.3 22.8 18.2 88 1.3 ESE 2 4 1 2 1012.7 1012.5 0.0
 
Date/Time
EDT
Temp
°C
App
Temp
°C
Dew
Point
°C
Rel
Hum
%
Delta-T
°C
Wind Press
QNH
hPa
Press
MSL
hPa
Rain since
9am
mm
Dir  Spd
km/h
Gust
km/h
Spd
kts
Gust
kts
27/11:50pm 20.3 22.8 18.1 87 1.4 ESE 2 2 1 1 1012.7 1012.5 0.0
27/11:48pm 26.7 32.4 24.4 87 1.6 ESE 2 4 1 2 1012.8 1012.6 0.0
27/11:37pm 20.9 23.2 18.5 86 1.5 ESE 4 4 2 2 1013.0 1012.8 0.0
27/11:30pm 27.0 32.5 24.6 87 1.7 ESE 4 4 2 2 1013.0 1012.8 0.0
27/11:25pm 27.9 33.9 25.5 87 1.7 ESE 4 4 2 2 1013.1 1012.9 0.0
27/11:00pm 20.9 23.3 18.7 87 1.4 ESE 4 4 2 2 1013.3 1013.1 0.0
27/10:30pm 21.3 23.7 18.7 85 1.6 E 4 4 2 2 1013.5 1013.3 0.0
27/10:00pm 24.7 28.3 21.2 81 2.3 E 4 4 2 2 1013.5 1013.3 0.0
27/09:30pm 24.8 28.6 21.7 83 2.1 E 4 4 2 2 1013.6 1013.4 0.0
27/09:00pm 24.5 27.4 19.8 75 3.0 E 4 4 2 2 1013.4 1013.2 0.0
27/08:30pm 24.5 27.1 19.3 73 3.3 E 4 4 2 2 1013.3 1013.1 0.0
27/08:00pm 28.7 32.1 22.7 70 4.1 E 9 13 5 7 1013.1 1012.9 0.0
27/07:30pm 29.7 32.7 22.7 66 4.8 E 11 15 6 8 1012.8 1012.6 0.0
27/07:00pm 26.2 26.8 18.6 63 4.9 ESE 13 19 7 10 1012.6 1012.4 0.0
27/06:30pm 27.3 27.0 18.3 58 5.7 E 17 22 9 12 1012.3 1012.1 0.0
27/06:00pm 28.5 28.7 18.6 55 6.4 E 15 20 8 11 1012.0 1011.8 0.0
27/05:30pm 32.0 33.3 20.9 52 7.5 ESE 15 24 8 13 1011.9 1011.7 0.0
27/05:00pm 33.2 35.5 21.4 50 8.0 ESE 11 15 6 8 1011.9 1011.7 0.0
27/04:30pm 33.8 35.9 20.2 44 9.1 NNE 9 20 5 11 1012.2 1012.0 0.0
27/04:00pm 32.2 33.8 19.1 45 8.6 NE 9 19 5 10 1012.6 1012.4 0.0
27/03:30pm 31.4 31.9 18.4 46 8.4 NNE 13 20 7 11 1013.1 1012.9 0.0
27/03:00pm 30.4 30.2 17.5 46 8.2 NNE 15 24 8 13 1013.6 1013.4 0.0
27/02:30pm 30.4 31.0 18.5 49 7.7 NNE 13 20 7 11 1014.2 1014.0 0.0
27/02:00pm 29.3 29.4 18.4 51 7.0 NNE 15 28 8 15 1014.9 1014.7 0.0
27/01:30pm 29.2 28.2 18.0 51 7.2 NE 20 26 11 14 1015.4 1015.2 0.0

Other formats

Comma delimited format used in spreadsheet applications
http://www.bom.gov.au/fwo/IDN60801/IDN60801.94752.axf

JavaScript Object Notation format (JSON) in row-major order
http://www.bom.gov.au/fwo/IDN60801/IDN60801.94752.json

Data quality

Most of these data are generated automatically and are frequently updated. Quality checks on data are not normally performed. It is possible for incorrect values to appear. Refer to information at About Latest Weather Observations and please check the disclaimer before using these data.